| time (UTC) | temp C | wind direction | speed KPH | gust KPH | rain 1hr cm | rain 24hr cm | rain mn cm | humidity % | barometer mb |
| 20260905000340 | 16 | 119 | 4.8 | 14.5 | 0.00 | 0.86 | 0.61 | 86 | 1014.3 |
| 20260904234829 | 17 | 80 | 6.4 | 17.7 | 0.00 | 0.86 | 0.61 | 84 | 1014.2 |
| 20260904233357 | 17 | 98 | 11.3 | 20.9 | 0.00 | 0.91 | 0.61 | 86 | 1014.1 |
| 20260904231827 | 17 | 128 | 4.8 | 11.3 | 0.00 | 0.91 | 0.61 | 93 | 1013.9 |
| 20260904230341 | 16 | 105 | 3.2 | 12.9 | 0.00 | 0.91 | 0.61 | 93 | 1013.9 |
| 20260904224830 | 15 | 63 | 4.8 | 8.0 | 0.00 | 0.91 | 0.61 | 96 | 1014.0 |
| 20260904223322 | 15 | 36 | 1.6 | 6.4 | 0.03 | 0.97 | 0.61 | 95 | 1013.9 |
| 20260904221833 | 15 | 46 | 3.2 | 6.4 | 0.03 | 0.97 | 0.61 | 95 | 1013.9 |
| 20260904220344 | 15 | 80 | 4.8 | 9.7 | 0.05 | 0.97 | 0.61 | 97 | 1013.9 |
| 20260904214855 | 14 | 85 | 1.6 | 4.8 | 0.33 | 0.97 | 0.61 | 96 | 1013.9 |
| 20260904213348 | 13 | 90 | 3.2 | 6.4 | 0.30 | 1.14 | 0.58 | 95 | 1013.8 |
| 20260904211819 | 13 | 128 | 6.4 | 16.1 | 0.30 | 1.14 | 0.58 | 95 | 1013.8 |
| 20260904210330 | 13 | 189 | 1.6 | 17.7 | 0.28 | 1.12 | 0.56 | 93 | 1013.8 |
| 20260904204820 | 14 | 221 | 8.0 | 12.9 | 0.00 | 0.84 | 0.28 | 91 | 1013.5 |
| 20260904203332 | 15 | 172 | 11.3 | 17.7 | 0.00 | 1.02 | 0.28 | 89 | 1013.5 |
| 20260904201822 | 16 | 101 | 4.8 | 8.0 | 0.00 | 1.02 | 0.28 | 88 | 1013.2 |
| 20260904200329 | 15 | 347 | 3.2 | 11.3 | 0.00 | 1.02 | 0.28 | 92 | 1013.3 |
| 20260904194838 | 14 | 109 | 6.4 | 16.1 | 0.00 | 1.02 | 0.28 | 92 | 1013.3 |
| 20260904193349 | 14 | 15 | 4.8 | 16.1 | 0.00 | 1.02 | 0.28 | 93 | 1013.5 |
| 20260904191821 | 15 | 9 | 4.8 | 12.9 | 0.00 | 1.02 | 0.28 | 95 | 1013.4 |
| 20260904190333 | 14 | 11 | 8.0 | 14.5 | 0.00 | 1.02 | 0.28 | 96 | 1013.5 |
| 20260904184826 | 14 | 36 | 6.4 | 12.9 | 0.00 | 1.02 | 0.28 | 98 | 1013.5 |
| 20260904183334 | 13 | 341 | 3.2 | 9.7 | 0.00 | 1.04 | 0.28 | 97 | 1013.4 |
| 20260904181824 | 13 | 354 | 3.2 | 9.7 | 0.00 | 1.04 | 0.28 | 98 | 1013.3 |
| 20260904180354 | 13 | 330 | 3.2 | 6.4 | 0.00 | 1.04 | 0.28 | 98 | 1013.2 |
| 20260904174844 | 13 | 328 | 4.8 | 8.0 | 0.00 | 1.04 | 0.28 | 98 | 1013.1 |
| 20260904173335 | 13 | 329 | 4.8 | 6.4 | 0.00 | 1.30 | 0.28 | 98 | 1013.0 |
| 20260904171822 | 12 | 329 | 3.2 | 4.8 | 0.00 | 1.30 | 0.28 | 98 | 1012.9 |
| 20260904170332 | 12 | 332 | 3.2 | 8.0 | 0.00 | 1.30 | 0.28 | 98 | 1012.8 |
| 20260904164838 | 12 | 337 | 3.2 | 6.4 | 0.00 | 1.30 | 0.28 | 98 | 1012.7 |
| 20260904163325 | 12 | 342 | 0.0 | 4.8 | 0.00 | 1.30 | 0.28 | 98 | 1012.6 |
| 20260904161845 | 12 | 342 | 1.6 | 6.4 | 0.00 | 1.30 | 0.28 | 98 | 1012.6 |
| 20260904160354 | 12 | 345 | 3.2 | 6.4 | 0.00 | 1.30 | 0.28 | 98 | 1012.7 |
| 20260904154825 | 12 | 334 | 4.8 | 8.0 | 0.00 | 1.30 | 0.28 | 98 | 1012.5 |
| 20260904153333 | 11 | 337 | 1.6 | 6.4 | 0.03 | 1.30 | 0.28 | 98 | 1012.2 |
| 20260904151823 | 11 | 337 | 4.8 | 11.3 | 0.05 | 1.30 | 0.28 | 98 | 1012.3 |
| 20260904150329 | 11 | 333 | 3.2 | 6.4 | 0.08 | 1.30 | 0.28 | 98 | 1012.3 |
| 20260904144822 | 11 | 317 | 1.6 | 4.8 | 0.08 | 1.30 | 0.28 | 98 | 1012.2 |
| 20260904143331 | 11 | 318 | 1.6 | 6.4 | 0.05 | 1.32 | 0.25 | 98 | 1012.1 |
| 20260904141822 | 11 | 351 | 4.8 | 9.7 | 0.03 | 1.30 | 0.23 | 98 | 1011.9 |
| 20260904140330 | 11 | 332 | 1.6 | 4.8 | 0.00 | 1.27 | 0.20 | 98 | 1011.7 |
| 20260904134838 | 11 | 331 | 3.2 | 6.4 | 0.00 | 1.27 | 0.20 | 98 | 1011.4 |
| 20260904133349 | 11 | 321 | 1.6 | 4.8 | 0.03 | 1.42 | 0.20 | 97 | 1011.2 |
| 20260904131819 | 11 | 321 | 1.6 | 4.8 | 0.03 | 1.42 | 0.20 | 97 | 1011.0 |
| 20260904130327 | 11 | 321 | 1.6 | 6.4 | 0.03 | 1.42 | 0.20 | 97 | 1010.9 |
| 20260904124821 | 11 | 321 | 3.2 | 11.3 | 0.03 | 1.42 | 0.20 | 97 | 1010.9 |
| 20260904123332 | 11 | 344 | 1.6 | 3.2 | 0.00 | 1.40 | 0.18 | 97 | 1010.9 |
| 20260904121824 | 11 | 344 | 1.6 | 4.8 | 0.00 | 1.40 | 0.18 | 97 | 1010.9 |
| 20260904120354 | 11 | 344 | 1.6 | 4.8 | 0.00 | 1.40 | 0.18 | 97 | 1010.8 |
| 20260904114821 | 11 | 344 | 1.6 | 3.2 | 0.00 | 1.40 | 0.18 | 97 | 1010.7 |
| 20260904113333 | 11 | 344 | 0.0 | 3.2 | 0.00 | 1.40 | 0.18 | 97 | 1010.5 |
| 20260904111826 | 11 | 344 | 1.6 | 4.8 | 0.00 | 1.40 | 0.18 | 97 | 1010.4 |
| 20260904110335 | 11 | 344 | 0.0 | 1.6 | 0.00 | 1.40 | 0.18 | 97 | 1010.4 |
| 20260904104843 | 11 | 344 | 3.2 | 4.8 | 0.00 | 1.40 | 0.18 | 97 | 1010.3 |
| 20260904101820 | 11 | 349 | 3.2 | 4.8 | 0.00 | 1.40 | 0.18 | 97 | 1010.3 |
| 20260904100331 | 11 | 348 | 3.2 | 6.4 | 0.00 | 1.40 | 0.18 | 97 | 1010.2 |
| 20260904094822 | 11 | 17 | 6.4 | 8.0 | 0.03 | 1.40 | 0.18 | 97 | 1010.2 |
| 20260904093332 | 11 | 16 | 4.8 | 8.0 | 0.05 | 1.40 | 0.18 | 97 | 1010.3 |
| 20260904091824 | 11 | 15 | 6.4 | 12.9 | 0.10 | 1.40 | 0.18 | 97 | 1010.3 |
| 20260904090332 | 11 | 36 | 4.8 | 6.4 | 0.15 | 1.40 | 0.18 | 97 | 1010.4 |
| 20260904084822 | 11 | 31 | 3.2 | 8.0 | 0.15 | 1.37 | 0.15 | 97 | 1010.4 |
| 20260904083334 | 11 | 34 | 4.8 | 6.4 | 0.13 | 1.35 | 0.13 | 97 | 1010.3 |
| 20260904081823 | 11 | 90 | 3.2 | 4.8 | 0.08 | 1.30 | 0.08 | 97 | 1010.3 |
| 20260904080333 | 11 | 122 | 6.4 | 11.3 | 0.03 | 1.24 | 0.03 | 97 | 1010.3 |
| 20260904074827 | 11 | 127 | 6.4 | 9.7 | 0.00 | 1.22 | 0.00 | 97 | 1010.2 |
| 20260904073335 | 11 | 122 | 1.6 | 4.8 | 0.00 | 1.22 | 1.22 | 97 | 1010.2 |
| 20260904071827 | 11 | 125 | 3.2 | 8.0 | 0.00 | 1.22 | 1.22 | 97 | 1010.3 |
| 20260904070339 | 11 | 134 | 4.8 | 8.0 | 0.00 | 1.22 | 1.22 | 97 | 1010.1 |
| 20260904064824 | 11 | 117 | 1.6 | 4.8 | 0.00 | 1.22 | 1.22 | 97 | 1010.1 |
| 20260904063338 | 11 | 61 | 0.0 | 3.2 | 0.00 | 1.24 | 1.22 | 96 | 1010.1 |
| 20260904061829 | 11 | 61 | 1.6 | 4.8 | 0.00 | 1.24 | 1.22 | 96 | 1010.2 |
| 20260904060321 | 11 | 80 | 1.6 | 4.8 | 0.00 | 1.24 | 1.22 | 96 | 1010.2 |
| 20260904054834 | 11 | 116 | 1.6 | 4.8 | 0.00 | 1.24 | 1.22 | 96 | 1010.1 |
| 20260904053343 | 11 | 119 | 1.6 | 4.8 | 0.00 | 1.37 | 1.22 | 96 | 1010.2 |
| 20260904051855 | 11 | 80 | 0.0 | 9.7 | 0.00 | 1.37 | 1.22 | 96 | 1010.2 |
| 20260904050325 | 11 | 94 | 6.4 | 9.7 | 0.00 | 1.37 | 1.22 | 96 | 1010.3 |
| 20260904044836 | 11 | 121 | 4.8 | 12.9 | 0.00 | 1.37 | 1.22 | 96 | 1010.2 |
| 20260904043322 | 11 | 140 | 6.4 | 14.5 | 0.03 | 1.37 | 1.22 | 96 | 1010.3 |
| 20260904041834 | 11 | 102 | 6.4 | 8.0 | 0.03 | 1.37 | 1.22 | 96 | 1010.2 |
| 20260904040325 | 11 | 96 | 4.8 | 9.7 | 0.08 | 1.37 | 1.22 | 96 | 1010.2 |
| 20260904034837 | 11 | 115 | 4.8 | 12.9 | 0.08 | 1.37 | 1.22 | 96 | 1010.1 |
| 20260904033328 | 11 | 131 | 4.8 | 8.0 | 0.05 | 1.35 | 1.19 | 96 | 1010.0 |
| 20260904031819 | 12 | 137 | 6.4 | 9.7 | 0.08 | 1.35 | 1.19 | 96 | 1009.9 |
| 20260904030332 | 12 | 136 | 6.4 | 9.7 | 0.05 | 1.30 | 1.14 | 96 | 1010.0 |
| 20260904024821 | 12 | 102 | 4.8 | 19.3 | 0.10 | 1.30 | 1.14 | 96 | 1010.2 |
| 20260904023332 | 12 | 123 | 9.7 | 14.5 | 0.13 | 1.30 | 1.14 | 96 | 1010.0 |
| 20260904021844 | 12 | 141 | 9.7 | 16.1 | 0.13 | 1.27 | 1.12 | 95 | 1009.9 |
| 20260904020335 | 12 | 115 | 8.0 | 14.5 | 0.13 | 1.24 | 1.09 | 95 | 1010.0 |
| 20260904014823 | 12 | 131 | 6.4 | 12.9 | 0.08 | 1.19 | 1.04 | 94 | 1009.9 |
| 20260904013335 | 12 | 114 | 11.3 | 16.1 | 0.05 | 1.17 | 1.02 | 94 | 1010.0 |
| 20260904011828 | 12 | 129 | 4.8 | 17.7 | 0.03 | 1.14 | 0.99 | 93 | 1009.9 |
| 20260904010320 | 13 | 145 | 8.0 | 17.7 | 0.00 | 1.12 | 0.97 | 94 | 1010.0 |
| 20260904004830 | 13 | 67 | 8.0 | 16.1 | 0.00 | 1.12 | 0.97 | 95 | 1009.9 |
| 20260904003323 | 13 | 109 | 6.4 | 12.9 | 0.00 | 1.19 | 0.97 | 95 | 1009.9 |
| 20260904001832 | 13 | 125 | 6.4 | 14.5 | 0.00 | 1.19 | 0.97 | 95 | 1010.0 |